Time;durP1;ratioP1;P1;durP2;ratioP2;P2;SDS_P1;SDS_P2;PMS_P1;PMS_P2;Temp;Humidity;BMP_temperature;BMP_pressure;BME280_temperature;BME280_humidity;BME280_pressure;Samples;Min_cycle;Max_cycle;Signal;HPM_P1;HPM_P2
2022/08/23 00:02:05;;;;;;;5.27;2.10;;;19.30;1.00;;;;;;7358316;19;20017;-66
2022/08/23 00:04:52;;;;;;;5.70;2.35;;;19.10;1.00;;;;;;7359866;19;20278;-66
2022/08/23 00:07:44;;;;;;;4.65;2.45;;;19.10;1.00;;;;;;7381742;19;20600;-66
2022/08/23 00:10:17;;;;;;;3.35;2.13;;;19.10;1.00;;;;;;7357556;19;20478;-66
2022/08/23 00:12:48;;;;;;;3.85;2.40;;;19.10;1.00;;;;;;7361154;19;20014;-66
2022/08/23 00:15:20;;;;;;;5.63;2.28;;;19.10;1.00;;;;;;7362307;19;20085;-66
2022/08/23 00:17:50;;;;;;;2.97;2.33;;;19.00;1.00;;;;;;7361014;19;20014;-66
2022/08/23 00:20:21;;;;;;;5.03;2.60;;;19.10;1.00;;;;;;7356606;19;20026;-66
2022/08/23 00:22:54;;;;;;;4.72;2.55;;;19.20;1.00;;;;;;7360943;19;20015;-66
2022/08/23 00:25:24;;;;;;;3.40;2.20;;;19.20;1.00;;;;;;7382392;19;20033;-66
2022/08/23 00:27:54;;;;;;;5.63;2.17;;;19.10;1.00;;;;;;7360703;19;20011;-66
2022/08/23 00:30:24;;;;;;;3.15;2.15;;;19.10;1.00;;;;;;7357365;19;20026;-66
2022/08/23 00:32:55;;;;;;;3.97;2.10;;;19.00;1.00;;;;;;7359988;19;20889;-66
2022/08/23 00:35:27;;;;;;;5.95;2.05;;;18.90;1.00;;;;;;7359231;19;20038;-66
2022/08/23 00:38:00;;;;;;;4.03;2.28;;;19.00;1.00;;;;;;7362438;19;20015;-66
2022/08/23 00:40:52;;;;;;;4.13;2.53;;;18.90;1.00;;;;;;7356153;19;20021;-66
2022/08/23 00:49:08;;;;;;;4.38;1.95;;;18.90;1.00;;;;;;7360568;19;20018;-66
2022/08/23 00:51:46;;;;;;;6.35;2.30;;;18.90;1.00;;;;;;7355691;19;20086;-66
2022/08/23 00:54:27;;;;;;;4.55;2.58;;;18.90;1.00;;;;;;7359923;19;20010;-66
2022/08/23 00:56:59;;;;;;;3.50;2.08;;;18.80;1.00;;;;;;7360669;19;20412;-66
2022/08/23 00:59:29;;;;;;;3.45;2.05;;;18.80;1.00;;;;;;7362278;19;20015;-65
2022/08/23 01:02:00;;;;;;;6.88;2.38;;;18.80;1.00;;;;;;7362575;19;20020;-65
2022/08/23 01:04:44;;;;;;;4.80;2.03;;;18.70;1.00;;;;;;7386689;19;20027;-66
2022/08/23 01:07:24;;;;;;;4.32;2.72;;;18.70;1.00;;;;;;7364791;19;20014;-66
2022/08/23 01:10:00;;;;;;;8.35;2.45;;;18.60;1.00;;;;;;7364248;19;20017;-66
2022/08/23 01:12:39;;;;;;;3.10;2.17;;;18.70;1.00;;;;;;7367958;19;20021;-66
2022/08/23 01:15:14;;;;;;;4.78;2.50;;;18.70;1.00;;;;;;7367389;19;20019;-66
2022/08/23 01:17:47;;;;;;;5.80;2.30;;;18.70;1.00;;;;;;7366047;19;20415;-66
2022/08/23 01:20:21;;;;;;;3.95;2.28;;;18.60;1.00;;;;;;7363139;19;20010;-66
2022/08/23 01:23:01;;;;;;;5.03;2.33;;;18.50;1.00;;;;;;7366847;19;20018;-66
2022/08/23 01:25:35;;;;;;;3.90;1.85;;;18.50;1.00;;;;;;7387099;19;20041;-66
2022/08/23 01:28:05;;;;;;;4.13;2.63;;;18.50;1.00;;;;;;7367638;19;20019;-66
2022/08/23 01:30:37;;;;;;;2.35;2.13;;;18.50;1.00;;;;;;7361933;19;20006;-66
2022/08/23 01:33:09;;;;;;;5.38;2.38;;;18.50;1.00;;;;;;7364299;19;20010;-66
2022/08/23 01:35:41;;;;;;;4.93;2.30;;;18.40;1.00;;;;;;7364572;19;20488;-66
2022/08/23 01:38:12;;;;;;;3.83;2.08;;;18.40;1.00;;;;;;7365419;19;20014;-66
2022/08/23 01:40:45;;;;;;;4.32;2.30;;;18.40;1.00;;;;;;7363282;19;20015;-66
2022/08/23 01:43:18;;;;;;;3.70;2.20;;;18.30;1.00;;;;;;7387798;19;20018;-66
2022/08/23 01:45:49;;;;;;;3.53;2.50;;;18.40;1.00;;;;;;7364609;19;20003;-66
2022/08/23 01:48:20;;;;;;;5.90;2.53;;;18.30;1.00;;;;;;7365445;19;20014;-66
2022/08/23 01:50:50;;;;;;;4.28;2.50;;;18.20;1.00;;;;;;7362476;19;20344;-66
2022/08/23 01:53:20;;;;;;;3.30;2.28;;;18.20;1.00;;;;;;7366741;19;20017;-66
2022/08/23 01:55:53;;;;;;;3.13;2.10;;;18.20;1.00;;;;;;7364524;19;20015;-66
2022/08/23 01:58:23;;;;;;;3.42;2.15;;;18.10;1.00;;;;;;7388708;19;20019;-66
2022/08/23 02:00:53;;;;;;;3.72;2.25;;;18.10;1.00;;;;;;7359453;19;20010;-65
2022/08/23 02:03:23;;;;;;;5.13;2.20;;;18.10;1.00;;;;;;7364966;19;20106;-65
2022/08/23 02:05:53;;;;;;;3.88;2.50;;;18.10;1.00;;;;;;7362223;19;20477;-66
2022/08/23 02:11:13;;;;;;;2.88;2.20;;;18.00;1.00;;;;;;7358657;19;20020;-66
2022/08/23 02:13:44;;;;;;;2.88;2.25;;;18.00;1.00;;;;;;7362655;19;20018;-66
2022/08/23 02:16:15;;;;;;;3.45;2.20;;;18.00;1.00;;;;;;7382721;19;20018;-66
2022/08/23 02:18:49;;;;;;;4.38;2.38;;;18.00;1.00;;;;;;7365666;19;20021;-66
2022/08/23 02:21:19;;;;;;;2.92;2.08;;;18.00;1.00;;;;;;7360987;19;20015;-66
2022/08/23 02:23:50;;;;;;;3.13;2.50;;;18.00;1.00;;;;;;7365810;19;20010;-66
2022/08/23 02:26:23;;;;;;;4.45;2.47;;;17.90;1.00;;;;;;7363716;19;20029;-65
2022/08/23 02:29:00;;;;;;;4.20;2.38;;;17.90;1.00;;;;;;7365911;19;20032;-65
2022/08/23 02:31:30;;;;;;;4.07;2.35;;;17.80;1.00;;;;;;7382843;19;20015;-66
2022/08/23 02:33:59;;;;;;;4.68;2.10;;;17.70;1.00;;;;;;7362700;19;20090;-65
2022/08/23 02:36:30;;;;;;;4.65;2.42;;;17.80;1.00;;;;;;7361503;19;20093;-66
2022/08/23 02:39:00;;;;;;;3.30;2.30;;;17.80;1.00;;;;;;7365239;19;20016;-66
2022/08/23 02:41:33;;;;;;;4.47;2.20;;;17.70;1.00;;;;;;7360496;19;20022;-66
2022/08/23 02:44:03;;;;;;;5.95;2.63;;;17.70;1.00;;;;;;7365550;19;20019;-66
2022/08/23 02:46:33;;;;;;;3.88;2.40;;;17.50;1.00;;;;;;7382420;19;20093;-66
2022/08/23 02:49:03;;;;;;;8.48;2.67;;;17.50;1.00;;;;;;7364424;19;20014;-65
2022/08/23 02:51:33;;;;;;;4.28;2.47;;;17.50;1.00;;;;;;7360067;19;20488;-66
2022/08/23 02:54:03;;;;;;;6.78;2.85;;;17.60;1.00;;;;;;7363991;19;20014;-65
2022/08/23 02:56:36;;;;;;;5.45;3.03;;;17.50;1.00;;;;;;7362459;19;20021;-65
2022/08/23 02:59:07;;;;;;;5.30;2.97;;;17.50;1.00;;;;;;7364982;19;20110;-66
2022/08/23 03:01:40;;;;;;;5.15;3.15;;;17.40;1.00;;;;;;7380452;19;20402;-66
2022/08/23 03:04:11;;;;;;;4.65;3.10;;;17.40;1.00;;;;;;7364986;19;20370;-66
2022/08/23 03:06:41;;;;;;;6.53;3.05;;;17.50;1.00;;;;;;7359633;19;20014;-66
2022/08/23 03:09:11;;;;;;;4.32;3.03;;;17.50;1.00;;;;;;7364373;19;20010;-66
2022/08/23 03:11:45;;;;;;;4.68;3.08;;;17.50;1.00;;;;;;7361625;19;20397;-66
2022/08/23 03:14:15;;;;;;;;;;;17.40;1.00;;;;;;7365035;19;20115;-65
2022/08/23 03:16:46;;;;;;;4.53;2.83;;;17.40;1.00;;;;;;7359004;19;20431;-66
2022/08/23 03:19:15;;;;;;;5.57;3.38;;;17.30;1.00;;;;;;7386128;19;20018;-66
2022/08/23 03:21:45;;;;;;;4.82;3.70;;;17.20;1.00;;;;;;7360551;19;20025;-66
2022/08/23 03:24:16;;;;;;;4.80;3.28;;;17.20;1.00;;;;;;7362394;19;20007;-66
2022/08/23 03:26:48;;;;;;;6.28;3.10;;;17.20;1.00;;;;;;7360594;19;20006;-65
2022/08/23 03:29:18;;;;;;;5.60;3.75;;;17.10;1.00;;;;;;7363317;19;20010;-65
2022/08/23 03:31:50;;;;;;;3.83;3.22;;;17.10;1.00;;;;;;7359501;19;20029;-66
2022/08/23 03:34:22;;;;;;;3.53;3.13;;;17.10;1.00;;;;;;7383427;19;20021;-66
2022/08/23 03:36:52;;;;;;;5.55;3.42;;;17.10;1.00;;;;;;7359521;19;20010;-65
2022/08/23 03:39:22;;;;;;;6.00;3.75;;;17.10;1.00;;;;;;7363142;19;20008;-65
2022/08/23 03:41:54;;;;;;;6.38;3.75;;;17.30;1.00;;;;;;7359557;19;20015;-66
2022/08/23 03:44:25;;;;;;;7.53;4.05;;;17.40;1.00;;;;;;7362225;19;20006;-66
2022/08/23 03:46:55;;;;;;;4.35;3.63;;;17.30;1.00;;;;;;7359871;19;20023;-65
2022/08/23 03:49:25;;;;;;;5.53;3.45;;;17.20;1.00;;;;;;7384577;19;20117;-66
2022/08/23 03:51:55;;;;;;;6.43;3.95;;;17.30;1.00;;;;;;7359990;19;20065;-66
2022/08/23 03:54:25;;;;;;;11.57;5.88;;;17.30;1.00;;;;;;7361102;19;20012;-65
2022/08/23 03:57:01;;;;;;;6.35;4.20;;;17.30;1.00;;;;;;7361367;19;20013;-66
2022/08/23 03:59:33;;;;;;;5.15;3.85;;;17.40;1.00;;;;;;7362747;19;20014;-65
2022/08/23 04:02:03;;;;;;;7.18;4.13;;;17.30;1.00;;;;;;7359234;19;20007;-66
2022/08/23 04:04:34;;;;;;;6.13;4.30;;;17.20;1.00;;;;;;7382693;19;20014;-65
2022/08/23 04:07:04;;;;;;;6.35;4.38;;;17.20;1.00;;;;;;7359084;19;20495;-65
2022/08/23 04:09:33;;;;;;;8.48;4.32;;;17.10;1.00;;;;;;7361878;19;20015;-65
2022/08/23 04:12:07;;;;;;;7.78;4.65;;;17.10;1.00;;;;;;7358993;19;20021;-66
2022/08/23 04:14:47;;;;;;;6.20;4.53;;;17.10;1.00;;;;;;7359964;19;20577;-66
2022/08/23 04:17:19;;;;;;;9.07;4.80;;;16.90;1.00;;;;;;7358408;19;20012;-66
2022/08/23 04:19:50;;;;;;;5.80;4.50;;;16.90;1.00;;;;;;7359678;19;20030;-66
2022/08/23 04:22:21;;;;;;;8.48;4.18;;;16.80;1.00;;;;;;7384346;19;20014;-65
2022/08/23 04:24:51;;;;;;;6.90;4.05;;;16.70;1.00;;;;;;7360377;19;20018;-66
2022/08/23 04:27:24;;;;;;;5.82;4.38;;;16.70;1.00;;;;;;7357523;19;20441;-66
2022/08/23 04:29:53;;;;;;;6.78;3.90;;;16.70;1.00;;;;;;7357431;19;20380;-65
2022/08/23 04:32:23;;;;;;;5.50;3.78;;;16.70;1.00;;;;;;7363463;19;20113;-65
2022/08/23 04:35:00;;;;;;;5.60;3.90;;;16.70;1.00;;;;;;7357553;19;20014;-65
2022/08/23 04:37:30;;;;;;;5.28;3.22;;;16.70;1.00;;;;;;7377967;19;20010;-64
2022/08/23 04:42:45;;;;;;;9.02;3.30;;;16.90;1.00;;;;;;7361063;19;20006;-64
2022/08/23 04:45:15;;;;;;;5.65;2.63;;;16.90;1.00;;;;;;7360168;19;20017;-65
2022/08/23 04:47:45;;;;;;;7.47;2.70;;;17.30;1.00;;;;;;7359379;19;20025;-64
2022/08/23 04:50:15;;;;;;;4.45;2.58;;;18.00;1.00;;;;;;7357804;19;20038;-65
2022/08/23 04:52:45;;;;;;;3.97;2.42;;;18.40;1.00;;;;;;7360478;19;20014;-65
2022/08/23 04:55:15;;;;;;;4.78;2.50;;;18.80;1.00;;;;;;7381677;19;20014;-66
2022/08/23 04:57:48;;;;;;;8.60;2.55;;;18.90;1.00;;;;;;7358467;19;20050;-65
2022/08/23 05:00:21;;;;;;;4.13;2.72;;;19.20;1.00;;;;;;7356774;19;20084;-66
2022/08/23 05:02:56;;;;;;;13.65;2.50;;;19.60;1.00;;;;;;7360960;19;20007;-65
2022/08/23 05:05:26;;;;;;;2.72;2.50;;;19.70;1.00;;;;;;7357104;19;20009;-65
2022/08/23 05:07:56;;;;;;;4.10;2.92;;;20.10;1.00;;;;;;7360827;19;20050;-66
2022/08/23 05:10:27;;;;;;;3.30;2.70;;;20.30;1.00;;;;;;7378291;19;20022;-65
2022/08/23 05:13:00;;;;;;;4.88;3.28;;;20.50;1.00;;;;;;7359908;19;20043;-66
2022/08/23 05:15:29;;;;;;;4.45;2.97;;;20.90;1.00;;;;;;7354369;19;20032;-65
2022/08/23 05:17:59;;;;;;;8.27;3.67;;;21.10;1.00;;;;;;7360047;19;20018;-66
2022/08/23 05:20:30;;;;;;;5.25;3.30;;;21.30;1.00;;;;;;7357272;19;20034;-64
2022/08/23 05:23:02;;;;;;;6.20;3.40;;;21.60;1.00;;;;;;7358620;19;20094;-65
2022/08/23 05:28:18;;;;;;;4.30;3.58;;;21.90;1.00;;;;;;7359457;19;20011;-65
2022/08/23 05:30:57;;;;;;;5.20;3.13;;;22.10;1.00;;;;;;7355139;19;20013;-66
2022/08/23 05:33:30;;;;;;;6.28;3.17;;;22.40;1.00;;;;;;7359888;19;20007;-65
2022/08/23 05:36:00;;;;;;;5.13;3.15;;;22.00;1.00;;;;;;7355299;19;20025;-65
2022/08/23 05:38:31;;;;;;;6.78;3.40;;;22.60;1.00;;;;;;7358320;19;20010;-65
2022/08/23 05:41:01;;;;;;;9.32;3.60;;;22.40;1.00;;;;;;7355500;19;20020;-65
2022/08/23 05:43:38;;;;;;;5.20;3.67;;;21.30;1.00;;;;;;7380592;19;20014;-65
2022/08/23 05:46:10;;;;;;;6.25;4.00;;;19.80;1.00;;;;;;7355399;19;20018;-66
2022/08/23 05:48:45;;;;;;;6.03;4.07;;;19.20;1.00;;;;;;7365262;19;20010;-64
2022/08/23 05:51:19;;;;;;;6.22;3.53;;;19.00;1.00;;;;;;7363194;19;20078;-65
2022/08/23 05:53:51;;;;;;;5.35;3.20;;;18.70;1.00;;;;;;7366320;19;20010;-65
2022/08/23 05:56:24;;;;;;;6.93;3.50;;;18.80;1.00;;;;;;7361763;19;20011;-66
2022/08/23 05:59:00;;;;;;;6.03;3.40;;;18.80;1.00;;;;;;7366164;19;20049;-66
2022/08/23 06:01:31;;;;;;;5.60;3.28;;;18.90;1.00;;;;;;7384541;19;20029;-66
2022/08/23 06:04:02;;;;;;;7.20;3.60;;;18.90;1.00;;;;;;7364179;19;20355;-65
2022/08/23 06:06:32;;;;;;;4.10;3.20;;;19.00;1.00;;;;;;7359148;19;20010;-65
2022/08/23 06:09:07;;;;;;;5.20;3.35;;;18.90;1.00;;;;;;7365264;19;20002;-65
2022/08/23 06:11:38;;;;;;;7.72;3.75;;;18.90;1.00;;;;;;7362669;19;20017;-65
2022/08/23 06:14:10;;;;;;;6.40;3.40;;;19.00;1.00;;;;;;7365355;19;20035;-65
2022/08/23 06:16:43;;;;;;;5.85;3.13;;;19.40;1.00;;;;;;7381944;19;20019;-66
2022/08/23 06:19:15;;;;;;;4.60;3.55;;;19.50;1.00;;;;;;7363271;19;20030;-65
2022/08/23 06:21:46;;;;;;;4.43;3.30;;;19.50;1.00;;;;;;7361200;19;20010;-65
2022/08/23 06:24:16;;;;;;;5.93;3.30;;;19.50;1.00;;;;;;7366009;19;20542;-65
2022/08/23 06:26:46;;;;;;;5.50;3.47;;;19.50;1.00;;;;;;7360724;19;20024;-65
2022/08/23 06:29:21;;;;;;;6.55;3.55;;;19.60;1.00;;;;;;7365263;19;20046;-64
2022/08/23 06:31:51;;;;;;;;;;;19.60;1.00;;;;;;7361127;19;20034;-65
2022/08/23 06:34:25;;;;;;;6.80;3.67;;;19.70;1.00;;;;;;7385905;19;19970;-65
2022/08/23 06:36:57;;;;;;;6.03;3.47;;;19.70;1.00;;;;;;7359328;19;20513;-65
2022/08/23 06:39:30;;;;;;;5.72;3.40;;;19.90;1.00;;;;;;7364888;19;20094;-66
2022/08/23 06:42:08;;;;;;;9.57;4.05;;;20.10;1.00;;;;;;7362551;19;20043;-66
2022/08/23 06:45:01;;;;;;;6.13;3.25;;;20.30;1.00;;;;;;7363330;19;20007;-65
2022/08/23 06:47:31;;;;;;;6.40;2.90;;;20.20;1.00;;;;;;7360349;19;20014;-65
2022/08/23 06:50:01;;;;;;;4.88;3.30;;;20.40;1.00;;;;;;7361104;19;20019;-65
2022/08/23 06:52:31;;;;;;;4.53;3.28;;;20.30;1.00;;;;;;7387412;19;20021;-64
2022/08/23 06:55:01;;;;;;;4.13;2.88;;;20.40;1.00;;;;;;7363514;19;20013;-65
2022/08/23 06:57:31;;;;;;;8.18;3.13;;;20.40;1.00;;;;;;7358369;19;20010;-64
2022/08/23 07:00:04;;;;;;;4.57;2.58;;;20.60;1.00;;;;;;7357569;19;20026;-65
2022/08/23 07:02:34;;;;;;;4.00;3.05;;;20.60;1.00;;;;;;7364957;19;20052;-65
2022/08/23 07:05:04;;;;;;;4.97;2.97;;;20.80;1.00;;;;;;7363445;19;20021;-65
2022/08/23 07:07:33;;;;;;;5.50;2.83;;;20.90;1.00;;;;;;7381106;19;20033;-65
2022/08/23 07:10:10;;;;;;;5.95;3.42;;;21.00;1.00;;;;;;7359737;19;20010;-66
2022/08/23 07:12:42;;;;;;;4.95;3.10;;;21.10;1.00;;;;;;7364197;19;20634;-65
2022/08/23 07:15:15;;;;;;;5.43;2.80;;;21.10;1.00;;;;;;7361036;19;20398;-64
2022/08/23 07:17:45;;;;;;;5.60;2.90;;;21.40;1.00;;;;;;7360316;19;20035;-64
2022/08/23 07:20:15;;;;;;;4.78;2.80;;;21.50;1.00;;;;;;7359340;19;20491;-66
2022/08/23 07:22:45;;;;;;;3.88;2.67;;;21.60;1.00;;;;;;7363641;19;20028;-66
2022/08/23 07:25:15;;;;;;;17.92;13.10;;;21.70;1.00;;;;;;7385489;19;20014;-66
2022/08/23 07:27:47;;;;;;;7.45;4.22;;;21.90;1.00;;;;;;7361069;19;20014;-66
2022/08/23 07:30:19;;;;;;;6.07;3.15;;;22.00;1.00;;;;;;7359350;19;20011;-66
2022/08/23 07:32:49;;;;;;;3.83;2.50;;;22.00;1.00;;;;;;7364120;19;20010;-66
2022/08/23 07:35:19;;;;;;;5.05;2.70;;;22.10;1.00;;;;;;7361524;19;20010;-66
2022/08/23 07:37:50;;;;;;;8.23;3.28;;;21.90;1.00;;;;;;7360400;19;20545;-66
2022/08/23 07:40:20;;;;;;;4.50;3.10;;;22.20;1.00;;;;;;7379489;19;20022;-65
2022/08/23 07:42:51;;;;;;;8.52;3.53;;;22.20;1.00;;;;;;7362004;19;20033;-65
2022/08/23 07:45:25;;;;;;;3.33;2.60;;;22.30;1.00;;;;;;7360567;19;20021;-65
2022/08/23 07:47:55;;;;;;;5.15;3.10;;;22.50;1.00;;;;;;7359747;19;20038;-65
2022/08/23 07:50:25;;;;;;;4.78;3.00;;;22.50;1.00;;;;;;7357847;19;20031;-65
2022/08/23 07:52:59;;;;;;;;;;;22.60;1.00;;;;;;7359484;19;20052;-65
2022/08/23 07:55:29;;;;;;;7.78;3.78;;;22.80;1.00;;;;;;7379797;19;19931;-66
2022/08/23 07:57:59;;;;;;;4.18;2.83;;;22.80;1.00;;;;;;7358991;19;20017;-66
2022/08/23 08:00:32;;;;;;;6.20;3.20;;;22.80;1.00;;;;;;7357191;19;20014;-65
2022/08/23 08:03:02;;;;;;;5.80;3.63;;;22.80;1.00;;;;;;7361271;19;20032;-65
2022/08/23 08:05:33;;;;;;;6.93;3.30;;;23.10;1.00;;;;;;7357752;19;20504;-66
2022/08/23 08:08:04;;;;;;;6.53;3.67;;;23.20;1.00;;;;;;7360348;19;20041;-67
2022/08/23 08:10:34;;;;;;;6.38;3.30;;;23.50;1.00;;;;;;7377619;19;20135;-65
2022/08/23 08:13:04;;;;;;;5.25;2.90;;;23.50;1.00;;;;;;7358826;19;20082;-67
2022/08/23 08:15:41;;;;;;;3.70;2.63;;;23.60;1.00;;;;;;7357397;19;20018;-66
2022/08/23 08:18:11;;;;;;;7.65;3.15;;;23.40;1.00;;;;;;7361077;19;20011;-65
2022/08/23 08:20:45;;;;;;;5.03;2.47;;;23.60;1.00;;;;;;7356652;19;20014;-65
2022/08/23 08:23:14;;;;;;;4.05;2.90;;;23.90;1.00;;;;;;7360555;19;20006;-65
2022/08/23 08:25:44;;;;;;;4.07;3.15;;;24.10;1.00;;;;;;7357161;19;20034;-65
2022/08/23 08:28:14;;;;;;;6.45;3.05;;;24.00;1.00;;;;;;7381590;19;20010;-65
2022/08/23 08:30:48;;;;;;;5.85;2.42;;;24.20;1.00;;;;;;7355851;19;20021;-65
2022/08/23 08:33:17;;;;;;;5.13;2.45;;;23.90;1.00;;;;;;7361868;19;20006;-65
2022/08/23 08:35:49;;;;;;;4.07;2.65;;;24.00;1.00;;;;;;7357293;19;20076;-65
2022/08/23 08:38:29;;;;;;;3.63;2.83;;;24.50;1.00;;;;;;7359236;19;20006;-65
2022/08/23 08:41:07;;;;;;;5.68;2.83;;;24.60;1.00;;;;;;7356609;19;20058;-66
2022/08/23 08:43:52;;;;;;;5.82;2.90;;;24.30;1.00;;;;;;7382431;19;20011;-66
2022/08/23 08:46:30;;;;;;;6.40;2.55;;;24.60;1.00;;;;;;7357500;19;20105;-66
2022/08/23 08:49:03;;;;;;;5.43;2.78;;;24.70;1.00;;;;;;7359650;19;20371;-65
2022/08/23 08:51:42;;;;;;;2.95;2.38;;;24.90;1.00;;;;;;7356312;19;20038;-65
2022/08/23 08:54:16;;;;;;;4.40;2.40;;;24.90;1.00;;;;;;7360085;19;20002;-65
2022/08/23 08:56:48;;;;;;;5.43;3.65;;;24.80;1.00;;;;;;7357470;19;20058;-65
2022/08/23 08:59:23;;;;;;;3.85;2.22;;;25.00;1.00;;;;;;7360309;19;20023;-65
2022/08/23 09:01:55;;;;;;;7.18;2.58;;;25.10;1.00;;;;;;7354945;19;20441;-67
2022/08/23 09:04:28;;;;;;;5.40;2.50;;;25.10;1.00;;;;;;7379343;19;20033;-66
2022/08/23 09:07:04;;;;;;;3.28;2.80;;;25.30;1.00;;;;;;7353960;19;20027;-65
2022/08/23 09:10:05;;;;;;;5.90;2.25;;;25.40;1.00;;;;;;7359671;19;20048;-66
2022/08/23 09:12:43;;;;;;;4.93;2.42;;;25.50;1.00;;;;;;7360389;19;20006;-66
2022/08/23 09:15:27;;;;;;;3.90;2.15;;;25.40;1.00;;;;;;7360697;19;20014;-66
2022/08/23 09:18:08;;;;;;;4.40;2.10;;;25.80;1.00;;;;;;7356926;19;20582;-65
2022/08/23 09:20:40;;;;;;;4.35;1.98;;;25.60;1.00;;;;;;7355953;19;20500;-65
2022/08/23 09:23:13;;;;;;;2.75;2.00;;;25.30;1.00;;;;;;7366002;19;20014;-65
2022/08/23 09:25:53;;;;;;;4.78;2.47;;;25.70;1.00;;;;;;7362860;19;20015;-66
2022/08/23 09:28:23;;;;;;;4.22;2.15;;;26.20;1.00;;;;;;7389380;19;20023;-66
2022/08/23 09:30:56;;;;;;;2.88;1.92;;;26.40;1.00;;;;;;7362342;19;20026;-65
2022/08/23 09:33:40;;;;;;;6.72;2.17;;;26.60;1.00;;;;;;7365917;19;20015;-65
2022/08/23 09:36:18;;;;;;;4.10;2.10;;;26.20;1.00;;;;;;7363387;19;20003;-65
2022/08/23 09:38:55;;;;;;;3.53;2.20;;;26.20;1.00;;;;;;7363503;19;20082;-66
2022/08/23 09:41:29;;;;;;;5.13;2.45;;;26.50;1.00;;;;;;7361962;19;20029;-66
2022/08/23 09:44:01;;;;;;;4.07;1.77;;;26.80;1.00;;;;;;7365123;19;20019;-66
2022/08/23 09:46:34;;;;;;;4.22;2.30;;;26.80;1.00;;;;;;7383371;19;20016;-66
2022/08/23 09:49:26;;;;;;;3.65;1.80;;;26.60;1.00;;;;;;7366302;19;20466;-65
2022/08/23 09:52:00;;;;;;;6.80;2.05;;;26.80;1.00;;;;;;7363158;19;20010;-65
2022/08/23 09:54:34;;;;;;;3.70;1.73;;;26.80;1.00;;;;;;7364223;19;20078;-66
2022/08/23 09:57:08;;;;;;;7.07;1.85;;;26.80;1.00;;;;;;7362535;19;20025;-66
2022/08/23 09:59:42;;;;;;;2.55;1.88;;;26.70;1.00;;;;;;7366535;19;20059;-66
2022/08/23 10:02:19;;;;;;;3.60;1.92;;;27.10;1.00;;;;;;7365547;19;20078;-66
2022/08/23 10:04:59;;;;;;;3.67;2.00;;;27.20;1.00;;;;;;7361850;19;20736;-65
2022/08/23 10:07:37;;;;;;;7.47;1.65;;;27.50;1.00;;;;;;7382482;19;20048;-66
2022/08/23 10:10:22;;;;;;;3.55;1.70;;;27.40;1.00;;;;;;7360912;19;20500;-66
2022/08/23 10:12:54;;;;;;;3.78;2.25;;;27.40;1.00;;;;;;7365720;19;20011;-65
2022/08/23 10:15:33;;;;;;;4.43;1.83;;;27.30;1.00;;;;;;7362957;19;20014;-67
2022/08/23 10:18:09;;;;;;;4.65;1.85;;;26.80;1.00;;;;;;7363708;19;20010;-66
2022/08/23 10:20:48;;;;;;;2.95;1.52;;;27.30;1.00;;;;;;7361303;19;20015;-67
2022/08/23 10:23:32;;;;;;;2.50;1.80;;;27.60;1.00;;;;;;7365555;19;20442;-66
2022/08/23 10:26:03;;;;;;;5.25;2.17;;;27.60;1.00;;;;;;7361673;19;20406;-67
2022/08/23 10:31:33;;;;;;;2.28;1.70;;;27.50;1.00;;;;;;7361793;19;20013;-65
2022/08/23 10:34:17;;;;;;;6.07;1.80;;;27.50;1.00;;;;;;7362221;19;20010;-66
2022/08/23 10:37:04;;;;;;;3.55;1.48;;;27.60;1.00;;;;;;7359668;19;20006;-65
2022/08/23 10:39:34;;;;;;;3.03;2.10;;;27.50;1.00;;;;;;7363239;19;20014;-66
2022/08/23 10:42:09;;;;;;;3.95;1.80;;;27.60;1.00;;;;;;7361925;19;20085;-66
2022/08/23 10:44:45;;;;;;;3.85;1.60;;;27.70;1.00;;;;;;7359025;19;20002;-67
2022/08/23 10:47:26;;;;;;;3.15;2.03;;;27.70;1.00;;;;;;7359045;19;20482;-67
2022/08/23 10:49:57;;;;;;;3.80;1.80;;;27.90;1.00;;;;;;7359915;19;20018;-67
2022/08/23 10:52:37;;;;;;;2.83;1.83;;;27.50;1.00;;;;;;7387867;19;20022;-67
2022/08/23 10:55:33;;;;;;;3.03;1.73;;;27.40;1.00;;;;;;7363701;19;20365;-67
2022/08/23 10:58:06;;;;;;;3.60;2.00;;;27.30;1.00;;;;;;7363605;19;20044;-67
2022/08/23 11:00:38;;;;;;;4.93;1.67;;;27.60;1.00;;;;;;7356972;19;20170;-69
2022/08/23 11:03:20;;;;;;;6.15;1.92;;;27.70;1.00;;;;;;7364000;19;20098;-67
2022/08/23 11:06:29;;;;;;;2.15;1.70;;;27.60;1.00;;;;;;7360449;19;20010;-66
2022/08/23 11:09:05;;;;;;;2.70;1.73;;;27.50;1.00;;;;;;7364741;19;20157;-67
2022/08/23 11:11:44;;;;;;;3.63;1.60;;;27.50;1.00;;;;;;7359701;19;20014;-67
2022/08/23 11:14:27;;;;;;;3.22;1.73;;;27.80;1.00;;;;;;7363679;19;20366;-67
2022/08/23 11:17:01;;;;;;;4.07;1.83;;;27.80;1.00;;;;;;7360132;19;20020;-68
2022/08/23 11:19:46;;;;;;;;;;;27.70;1.00;;;;;;7384130;19;20015;-68
2022/08/23 11:22:17;;;;;;;3.55;1.75;;;27.80;1.00;;;;;;7363223;19;20350;-67
2022/08/23 11:25:01;;;;;;;3.25;1.70;;;27.90;1.00;;;;;;7359232;19;20376;-67
2022/08/23 11:27:34;;;;;;;5.45;2.00;;;27.70;1.00;;;;;;7359674;19;20485;-67
2022/08/23 11:30:34;;;;;;;3.33;1.65;;;27.90;1.00;;;;;;7358858;19;20162;-67
2022/08/23 11:33:15;;;;;;;6.32;1.73;;;28.00;1.00;;;;;;7363020;19;20014;-67
2022/08/23 11:35:47;;;;;;;4.25;1.70;;;28.10;1.00;;;;;;7359125;19;20006;-67
2022/08/23 11:38:18;;;;;;;2.60;1.55;;;28.20;1.00;;;;;;7363263;19;20018;-67
2022/08/23 11:41:13;;;;;;;7.32;1.90;;;28.40;1.00;;;;;;7358659;19;20106;-65
2022/08/23 11:43:45;;;;;;;2.90;1.98;;;28.10;1.00;;;;;;7362802;19;20015;-66
2022/08/23 11:46:33;;;;;;;3.97;1.40;;;28.00;1.00;;;;;;7379641;19;20481;-66
2022/08/23 11:49:27;;;;;;;1.98;1.60;;;28.10;1.00;;;;;;7362507;19;20586;-66
2022/08/23 11:52:08;;;;;;;2.42;1.65;;;28.40;1.00;;;;;;7358357;19;20490;-66
2022/08/23 11:55:11;;;;;;;4.57;1.80;;;28.30;1.00;;;;;;7357908;19;20014;-66
2022/08/23 11:58:14;;;;;;;5.00;1.67;;;28.00;1.00;;;;;;7357532;19;20525;-66
2022/08/23 12:01:07;;;;;;;3.55;1.55;;;28.30;1.00;;;;;;7356690;19;20470;-67
2022/08/23 12:03:58;;;;;;;2.92;1.70;;;28.20;1.00;;;;;;7362340;19;20016;-66
2022/08/23 12:06:42;;;;;;;3.20;1.75;;;28.40;1.00;;;;;;7357317;19;20471;-66
2022/08/23 12:09:50;;;;;;;4.78;1.90;;;28.60;1.00;;;;;;7360764;19;20014;-66
2022/08/23 12:12:32;;;;;;;1.73;1.48;;;28.50;1.00;;;;;;7362677;19;20017;-67
2022/08/23 12:15:14;;;;;;;4.75;1.80;;;28.70;1.00;;;;;;7359763;19;20031;-67
2022/08/23 12:18:13;;;;;;;2.67;1.50;;;28.50;1.00;;;;;;7358851;19;20102;-67
2022/08/23 12:20:44;;;;;;;2.47;1.90;;;28.60;1.00;;;;;;7355468;19;20025;-66
2022/08/23 12:23:20;;;;;;;3.22;1.45;;;28.40;1.00;;;;;;7359730;19;20407;-66
2022/08/23 12:26:06;;;;;;;2.53;1.70;;;28.30;1.00;;;;;;7352567;19;20094;-66
2022/08/23 12:28:42;;;;;;;2.33;1.67;;;28.40;1.00;;;;;;7383749;19;20106;-66
2022/08/23 12:31:30;;;;;;;5.22;1.65;;;28.70;1.00;;;;;;7357008;19;20500;-67
2022/08/23 12:34:12;;;;;;;2.85;1.77;;;29.00;1.00;;;;;;7360588;19;20062;-66
2022/08/23 12:36:49;;;;;;;2.30;1.70;;;28.70;1.00;;;;;;7355820;19;20051;-66
2022/08/23 12:39:27;;;;;;;4.10;1.85;;;28.90;1.00;;;;;;7358378;19;20014;-66
2022/08/23 12:42:03;;;;;;;4.28;1.92;;;28.90;1.00;;;;;;7356768;19;20506;-66
2022/08/23 12:44:35;;;;;;;2.60;1.85;;;28.70;1.00;;;;;;7359493;19;20014;-66
2022/08/23 12:47:17;;;;;;;2.67;1.80;;;28.90;1.00;;;;;;7357404;19;20014;-66
2022/08/23 12:49:59;;;;;;;3.35;2.00;;;29.00;1.00;;;;;;7357513;19;20017;-66
2022/08/23 12:52:32;;;;;;;3.30;1.80;;;28.90;1.00;;;;;;7380566;19;20090;-66
2022/08/23 12:55:03;;;;;;;2.22;2.03;;;28.60;1.00;;;;;;7358710;19;20549;-66
2022/08/23 12:57:36;;;;;;;3.25;1.80;;;28.60;1.00;;;;;;7355409;19;20018;-66
2022/08/23 13:00:19;;;;;;;3.53;1.80;;;28.80;1.00;;;;;;7354661;19;20007;-66
2022/08/23 13:02:59;;;;;;;3.65;1.73;;;28.90;1.00;;;;;;7360331;19;20014;-66
2022/08/23 13:05:39;;;;;;;3.17;1.83;;;28.80;1.00;;;;;;7357625;19;20007;-67
2022/08/23 13:08:12;;;;;;;2.30;1.58;;;29.00;1.00;;;;;;7358450;19;20560;-66
2022/08/23 13:10:45;;;;;;;2.58;1.70;;;29.30;1.00;;;;;;7363636;19;20042;-67
2022/08/23 13:13:21;;;;;;;2.33;1.77;;;29.40;1.00;;;;;;7378919;19;20422;-66
2022/08/23 13:15:56;;;;;;;2.90;1.90;;;29.20;1.00;;;;;;7354518;19;20126;-65
2022/08/23 13:18:35;;;;;;;2.75;1.52;;;29.30;1.00;;;;;;7356666;19;20026;-65
2022/08/23 13:21:34;;;;;;;5.00;1.80;;;29.40;1.00;;;;;;7353514;19;20007;-66
2022/08/23 13:24:28;;;;;;;3.58;1.52;;;29.40;1.00;;;;;;7359637;19;20065;-65
2022/08/23 13:27:29;;;;;;;2.00;1.70;;;29.60;1.00;;;;;;7356684;19;20014;-66
2022/08/23 13:30:23;;;;;;;2.60;1.90;;;29.60;1.00;;;;;;7355478;19;20090;-66
2022/08/23 13:33:14;;;;;;;3.30;1.80;;;29.40;1.00;;;;;;7358497;19;20031;-67
2022/08/23 13:35:49;;;;;;;2.55;1.80;;;28.70;1.00;;;;;;7356214;19;20021;-66
2022/08/23 13:38:26;;;;;;;2.45;2.00;;;29.00;1.00;;;;;;7359909;19;20006;-66
2022/08/23 13:41:02;;;;;;;1.83;1.60;;;29.40;1.00;;;;;;7352570;19;20014;-66
2022/08/23 13:43:38;;;;;;;5.00;2.15;;;29.60;1.00;;;;;;7382889;19;20019;-66
2022/08/23 13:46:16;;;;;;;3.47;1.83;;;29.40;1.00;;;;;;7354610;19;20103;-66
2022/08/23 13:48:55;;;;;;;3.42;1.80;;;29.50;1.00;;;;;;7356445;19;20025;-67
2022/08/23 13:51:32;;;;;;;3.30;1.70;;;29.50;1.00;;;;;;7353429;19;20006;-67
2022/08/23 13:54:04;;;;;;;2.58;1.50;;;29.80;1.00;;;;;;7359373;19;20011;-67
2022/08/23 13:56:39;;;;;;;4.13;1.80;;;29.60;1.00;;;;;;7356128;19;20015;-67